Time;durP1;ratioP1;P1;durP2;ratioP2;P2;SDS_P1;SDS_P2;PMS_P1;PMS_P2;Temp;Humidity;BMP_temperature;BMP_pressure;BME280_temperature;BME280_humidity;BME280_pressure;Samples;Min_cycle;Max_cycle;Signal;HPM_P1;HPM_P2
2021/10/10 00:00:29;;;;;;;15.88;14.20;;;6.90;1.00;;;;;;5060145;28;20221;-77
2021/10/10 00:02:55;;;;;;;15.52;13.77;;;6.90;1.00;;;;;;5055352;28;20235;-77
2021/10/10 00:05:23;;;;;;;16.55;13.82;;;6.80;1.00;;;;;;5056201;28;20232;-77
2021/10/10 00:07:50;;;;;;;17.20;14.20;;;6.80;1.00;;;;;;5059809;28;20221;-77
2021/10/10 00:10:17;;;;;;;17.10;14.10;;;6.80;1.00;;;;;;5061042;28;20216;-77
2021/10/10 00:12:46;;;;;;;16.08;13.73;;;6.70;1.00;;;;;;5057897;28;20310;-76
2021/10/10 00:15:14;;;;;;;17.95;14.93;;;6.70;1.00;;;;;;5057988;28;20283;-76
2021/10/10 00:17:41;;;;;;;17.23;15.25;;;6.70;1.00;;;;;;5061680;28;20712;-76
2021/10/10 00:20:09;;;;;;;17.65;13.75;;;6.70;1.00;;;;;;5057788;28;20265;-76
2021/10/10 00:22:37;;;;;;;17.85;15.25;;;6.70;1.00;;;;;;5058272;28;21034;-76
2021/10/10 00:25:04;;;;;;;18.13;14.90;;;6.70;1.00;;;;;;5057649;28;20220;-76
2021/10/10 00:27:31;;;;;;;16.85;14.70;;;6.60;1.00;;;;;;5057518;28;20225;-76
2021/10/10 00:29:57;;;;;;;16.73;14.93;;;6.60;1.00;;;;;;5046242;28;20221;-77
2021/10/10 00:32:24;;;;;;;17.35;15.60;;;6.60;1.00;;;;;;5058653;28;20682;-77
2021/10/10 00:34:51;;;;;;;15.35;13.73;;;6.60;1.00;;;;;;5058885;28;20228;-76
2021/10/10 00:37:17;;;;;;;17.45;14.48;;;6.50;1.00;;;;;;5062094;28;20216;-76
2021/10/10 00:39:45;;;;;;;16.00;14.20;;;6.40;1.00;;;;;;5055963;28;20221;-77
2021/10/10 00:42:12;;;;;;;17.25;15.15;;;6.50;1.00;;;;;;5059041;28;20225;-77
2021/10/10 00:44:38;;;;;;;19.17;14.52;;;6.40;1.00;;;;;;5061069;28;20224;-77
2021/10/10 00:47:05;;;;;;;19.00;14.63;;;6.40;1.00;;;;;;5056822;28;20228;-76
2021/10/10 00:49:32;;;;;;;16.60;14.15;;;6.40;1.00;;;;;;5063977;28;20235;-77
2021/10/10 00:52:00;;;;;;;17.27;15.00;;;6.40;1.00;;;;;;5060205;28;20237;-76
2021/10/10 00:54:31;;;;;;;16.23;14.52;;;6.40;1.00;;;;;;5058913;28;20225;-76
2021/10/10 00:57:00;;;;;;;25.20;15.43;;;6.40;1.00;;;;;;5060223;28;20234;-77
2021/10/10 00:59:29;;;;;;;18.50;14.93;;;6.40;1.00;;;;;;5061539;28;21361;-76
2021/10/10 01:01:55;;;;;;;18.70;14.70;;;6.30;1.00;;;;;;5059246;28;20246;-77
2021/10/10 01:04:22;;;;;;;14.82;13.32;;;6.30;1.00;;;;;;5061500;28;20216;-77
2021/10/10 01:06:49;;;;;;;17.50;14.25;;;6.30;1.00;;;;;;5067053;28;20236;-76
2021/10/10 01:09:17;;;;;;;16.30;14.60;;;6.30;1.00;;;;;;5062099;28;20232;-76
2021/10/10 01:11:44;;;;;;;22.60;14.57;;;6.30;1.00;;;;;;5073145;28;20232;-76
2021/10/10 01:14:15;;;;;;;19.42;15.38;;;6.20;1.00;;;;;;5069305;28;20294;-76
2021/10/10 01:16:42;;;;;;;19.85;14.93;;;6.20;1.00;;;;;;5062347;28;20995;-76
2021/10/10 01:19:09;;;;;;;17.60;15.40;;;6.20;1.00;;;;;;5062394;28;20255;-76
2021/10/10 01:21:37;;;;;;;18.40;15.48;;;6.20;1.00;;;;;;5062708;28;20224;-77
2021/10/10 01:24:04;;;;;;;18.60;16.05;;;6.10;1.00;;;;;;5056280;28;20932;-76
2021/10/10 01:26:31;;;;;;;21.42;15.68;;;6.10;1.00;;;;;;5056628;28;20222;-76
2021/10/10 01:28:58;;;;;;;18.38;15.20;;;6.00;1.00;;;;;;5057717;28;20228;-77
2021/10/10 01:31:25;;;;;;;18.13;15.48;;;6.00;1.00;;;;;;5056454;28;20255;-77
2021/10/10 01:33:53;;;;;;;17.65;14.27;;;6.00;1.00;;;;;;5059294;28;20229;-76
2021/10/10 01:36:21;;;;;;;17.90;15.90;;;6.00;1.00;;;;;;5055974;28;20780;-77
2021/10/10 01:38:49;;;;;;;17.88;15.90;;;5.90;1.00;;;;;;5056738;28;20231;-77
2021/10/10 01:41:16;;;;;;;17.63;15.43;;;5.90;1.00;;;;;;5057304;28;20221;-76
2021/10/10 01:43:42;;;;;;;18.88;15.32;;;5.90;1.00;;;;;;5058794;28;20235;-77
2021/10/10 01:46:09;;;;;;;20.30;16.25;;;5.90;1.00;;;;;;5054523;28;20229;-77
2021/10/10 01:48:36;;;;;;;20.60;15.50;;;5.90;1.00;;;;;;5060639;28;20222;-77
2021/10/10 01:51:03;;;;;;;21.25;15.60;;;5.90;1.00;;;;;;5059565;28;20225;-77
2021/10/10 01:53:30;;;;;;;18.00;15.45;;;5.90;1.00;;;;;;5066342;28;20216;-76
2021/10/10 01:55:58;;;;;;;17.73;14.15;;;5.90;1.00;;;;;;5055408;28;20224;-77
2021/10/10 01:58:25;;;;;;;21.98;15.65;;;5.90;1.00;;;;;;5056612;28;20227;-77
2021/10/10 02:00:51;;;;;;;18.45;15.20;;;5.90;1.00;;;;;;5058876;28;20865;-77
2021/10/10 02:03:18;;;;;;;22.08;16.17;;;5.80;1.00;;;;;;5055354;28;20224;-76
2021/10/10 02:05:45;;;;;;;20.98;16.08;;;5.80;1.00;;;;;;5057632;28;20221;-77
2021/10/10 02:08:11;;;;;;;18.40;16.17;;;5.80;1.00;;;;;;5056072;28;21245;-77
2021/10/10 02:10:38;;;;;;;23.15;16.70;;;5.70;1.00;;;;;;5056790;28;21064;-76
2021/10/10 02:13:06;;;;;;;17.23;15.30;;;5.70;1.00;;;;;;5059461;28;21163;-77
2021/10/10 02:15:32;;;;;;;18.02;16.13;;;5.70;1.00;;;;;;5057427;28;20216;-77
2021/10/10 02:17:59;;;;;;;19.55;16.15;;;5.70;1.00;;;;;;5059994;28;20216;-76
2021/10/10 02:20:26;;;;;;;20.40;15.85;;;5.70;1.00;;;;;;5055373;28;20217;-76
2021/10/10 02:22:52;;;;;;;20.73;15.57;;;5.70;1.00;;;;;;5056580;28;20221;-75
2021/10/10 02:25:19;;;;;;;19.10;14.75;;;5.70;1.00;;;;;;5058740;28;20216;-76
2021/10/10 02:27:46;;;;;;;20.77;16.48;;;5.70;1.00;;;;;;5061356;28;20224;-76
2021/10/10 02:30:14;;;;;;;20.45;16.75;;;5.70;1.00;;;;;;5054768;28;20229;-76
2021/10/10 02:32:41;;;;;;;20.63;15.93;;;5.70;1.00;;;;;;5056251;28;21123;-77
2021/10/10 02:35:08;;;;;;;21.05;17.65;;;5.60;1.00;;;;;;5057528;28;20801;-76
2021/10/10 02:37:35;;;;;;;21.40;17.02;;;5.60;1.00;;;;;;5056118;28;20224;-76
2021/10/10 02:40:01;;;;;;;20.02;16.00;;;5.50;1.00;;;;;;5055813;28;20221;-75
2021/10/10 02:42:28;;;;;;;20.63;15.90;;;5.50;1.00;;;;;;5053922;28;20240;-75
2021/10/10 02:44:55;;;;;;;19.17;15.38;;;5.50;1.00;;;;;;5057440;28;20240;-75
2021/10/10 02:47:23;;;;;;;22.27;15.80;;;5.40;1.00;;;;;;5054493;28;21314;-76
2021/10/10 02:49:49;;;;;;;17.70;15.57;;;5.50;1.00;;;;;;5057894;28;20228;-76
2021/10/10 02:52:17;;;;;;;18.77;16.13;;;5.50;1.00;;;;;;5052814;28;20224;-75
2021/10/10 02:54:44;;;;;;;18.67;15.90;;;5.50;1.00;;;;;;5056673;28;20815;-76
2021/10/10 02:57:10;;;;;;;21.05;16.63;;;5.50;1.00;;;;;;5056403;28;20232;-76
2021/10/10 02:59:37;;;;;;;19.65;16.92;;;5.50;1.00;;;;;;5058474;28;21439;-75
2021/10/10 03:02:04;;;;;;;21.02;17.58;;;5.50;1.00;;;;;;5057166;28;20712;-75
2021/10/10 03:04:32;;;;;;;20.80;17.27;;;5.40;1.00;;;;;;5061839;28;20772;-75
2021/10/10 03:06:58;;;;;;;20.65;16.92;;;5.50;1.00;;;;;;5056383;28;20224;-75
2021/10/10 03:09:25;;;;;;;22.15;17.60;;;5.50;1.00;;;;;;5059434;28;20228;-76
2021/10/10 03:11:51;;;;;;;23.75;18.02;;;5.40;1.00;;;;;;5059400;28;20236;-75
2021/10/10 03:14:18;;;;;;;24.02;18.40;;;5.40;1.00;;;;;;5058674;28;21270;-76
2021/10/10 03:16:45;;;;;;;18.88;16.02;;;5.30;1.00;;;;;;5060750;28;20981;-76
2021/10/10 03:19:11;;;;;;;18.50;16.58;;;5.30;1.00;;;;;;5057217;28;20228;-76
2021/10/10 03:21:39;;;;;;;24.27;17.95;;;5.20;1.00;;;;;;5061618;28;20668;-76
2021/10/10 03:24:06;;;;;;;22.00;17.13;;;5.20;1.00;;;;;;5056234;28;21189;-76
2021/10/10 03:26:33;;;;;;;24.30;17.20;;;5.20;1.00;;;;;;5060914;28;20279;-76
2021/10/10 03:29:02;;;;;;;24.92;17.65;;;5.20;1.00;;;;;;5058872;28;20237;-76
2021/10/10 03:31:28;;;;;;;22.90;17.80;;;5.20;1.00;;;;;;5056841;28;20369;-76
2021/10/10 03:33:55;;;;;;;22.02;17.50;;;5.20;1.00;;;;;;5061621;28;20232;-76
2021/10/10 03:36:22;;;;;;;20.13;17.95;;;5.20;1.00;;;;;;5060430;28;20221;-76
2021/10/10 03:38:50;;;;;;;21.60;17.00;;;5.20;1.00;;;;;;5059357;28;20220;-77
2021/10/10 03:41:16;;;;;;;22.38;17.88;;;5.10;1.00;;;;;;5056863;28;20216;-76
2021/10/10 03:43:44;;;;;;;22.85;17.80;;;5.10;1.00;;;;;;5059473;28;20751;-76
2021/10/10 03:46:11;;;;;;;20.23;18.10;;;5.10;1.00;;;;;;5058725;28;20254;-77
2021/10/10 03:48:37;;;;;;;20.90;17.60;;;5.10;1.00;;;;;;5059833;28;20434;-77
2021/10/10 03:51:04;;;;;;;25.25;18.73;;;5.10;1.00;;;;;;5061216;28;20235;-76
2021/10/10 03:53:40;;;;;;;21.13;17.17;;;5.10;1.00;;;;;;5056602;28;20344;-76
2021/10/10 03:56:08;;;;;;;21.98;17.05;;;5.10;1.00;;;;;;5057179;28;20232;-77
2021/10/10 03:58:38;;;;;;;22.92;17.40;;;5.00;1.00;;;;;;5058688;28;20225;-77
2021/10/10 04:01:04;;;;;;;23.20;17.88;;;5.00;1.00;;;;;;5063040;28;20224;-77
2021/10/10 04:03:31;;;;;;;21.08;17.23;;;5.00;1.00;;;;;;5058456;28;20387;-77
2021/10/10 04:05:58;;;;;;;20.88;17.42;;;4.90;1.00;;;;;;5062662;28;20221;-76
2021/10/10 04:08:24;;;;;;;20.90;17.65;;;4.90;1.00;;;;;;5067189;28;20417;-77
2021/10/10 04:10:51;;;;;;;22.85;17.88;;;4.90;1.00;;;;;;5062868;28;20224;-77
2021/10/10 04:13:19;;;;;;;21.73;18.10;;;4.80;1.00;;;;;;5057401;28;21177;-77
2021/10/10 04:15:46;;;;;;;20.60;16.92;;;4.80;1.00;;;;;;5058885;28;20221;-75
2021/10/10 04:18:12;;;;;;;24.15;18.50;;;4.80;1.00;;;;;;5058084;28;20229;-75
2021/10/10 04:20:39;;;;;;;22.67;18.27;;;4.80;1.00;;;;;;5060693;28;20220;-75
2021/10/10 04:23:05;;;;;;;22.20;18.90;;;4.80;1.00;;;;;;5056540;28;20231;-76
2021/10/10 04:25:33;;;;;;;21.52;18.13;;;4.70;1.00;;;;;;5057618;28;20228;-76
2021/10/10 04:27:59;;;;;;;23.45;17.80;;;4.70;1.00;;;;;;5058499;28;21227;-76
2021/10/10 04:30:28;;;;;;;22.42;18.25;;;4.70;1.00;;;;;;5059811;28;20233;-76
2021/10/10 04:32:54;;;;;;;24.33;19.08;;;4.70;1.00;;;;;;5060895;28;20232;-76
2021/10/10 04:35:21;;;;;;;27.65;18.83;;;4.70;1.00;;;;;;5061752;28;20224;-75
2021/10/10 04:37:47;;;;;;;20.67;18.30;;;4.60;1.00;;;;;;5060779;28;20318;-76
2021/10/10 04:40:14;;;;;;;20.27;17.38;;;4.70;1.00;;;;;;5065299;28;20227;-76
2021/10/10 04:42:41;;;;;;;25.23;19.42;;;4.70;1.00;;;;;;5067022;28;20224;-75
2021/10/10 04:45:08;;;;;;;22.02;18.27;;;4.70;1.00;;;;;;5071128;28;20588;-76
2021/10/10 04:47:36;;;;;;;22.50;17.48;;;4.70;1.00;;;;;;5065903;28;20221;-76
2021/10/10 04:50:04;;;;;;;23.85;19.27;;;4.60;1.00;;;;;;5064362;28;20220;-76
2021/10/10 04:52:31;;;;;;;25.05;18.33;;;4.60;1.00;;;;;;5075077;28;21095;-76
2021/10/10 04:54:58;;;;;;;27.25;20.48;;;4.60;1.00;;;;;;5061623;28;20232;-76
2021/10/10 04:57:24;;;;;;;24.05;19.88;;;4.50;1.00;;;;;;5065190;28;20243;-77
2021/10/10 04:59:51;;;;;;;22.88;19.05;;;4.50;1.00;;;;;;5059870;28;21708;-76
2021/10/10 05:02:19;;;;;;;21.33;18.45;;;4.50;1.00;;;;;;5058855;28;20252;-76
2021/10/10 05:04:47;;;;;;;26.60;20.23;;;4.50;1.00;;;;;;5057642;28;21396;-76
2021/10/10 05:07:14;;;;;;;24.55;20.25;;;4.40;1.00;;;;;;5066455;28;20217;-76
2021/10/10 05:09:41;;;;;;;25.42;20.30;;;4.40;1.00;;;;;;5058204;28;20233;-75
2021/10/10 05:12:07;;;;;;;26.25;19.55;;;4.40;1.00;;;;;;5066065;28;21648;-75
2021/10/10 05:14:34;;;;;;;24.58;20.65;;;4.40;1.00;;;;;;5059306;28;20232;-76
2021/10/10 05:17:01;;;;;;;29.23;21.35;;;4.40;1.00;;;;;;5061804;28;20228;-76
2021/10/10 05:19:27;;;;;;;27.92;22.05;;;4.30;1.00;;;;;;5057371;28;20272;-76
2021/10/10 05:21:55;;;;;;;23.08;20.15;;;4.30;1.00;;;;;;5064618;28;20228;-77
2021/10/10 05:24:22;;;;;;;24.23;19.33;;;4.20;1.00;;;;;;5064664;28;20232;-77
2021/10/10 05:26:49;;;;;;;25.83;20.25;;;4.30;1.00;;;;;;5061867;28;20224;-77
2021/10/10 05:29:15;;;;;;;26.25;19.75;;;4.30;1.00;;;;;;5063082;28;21361;-76
2021/10/10 05:31:42;;;;;;;21.45;18.90;;;4.30;1.00;;;;;;5067173;28;20220;-76
2021/10/10 05:34:09;;;;;;;26.20;20.10;;;4.20;1.00;;;;;;5062661;28;20258;-77
2021/10/10 05:36:35;;;;;;;25.65;20.23;;;4.30;1.00;;;;;;5061640;28;20305;-77
2021/10/10 05:39:04;;;;;;;25.67;19.40;;;4.30;1.00;;;;;;5062879;28;20316;-76
2021/10/10 05:41:30;;;;;;;25.38;20.15;;;4.30;1.00;;;;;;5070230;28;20243;-77
2021/10/10 05:43:57;;;;;;;24.45;20.20;;;4.30;1.00;;;;;;5064682;28;20232;-76
2021/10/10 05:46:25;;;;;;;25.00;19.50;;;4.30;1.00;;;;;;5062752;28;20221;-77
2021/10/10 05:48:51;;;;;;;24.73;20.88;;;4.30;1.00;;;;;;5063653;28;20231;-77
2021/10/10 05:51:18;;;;;;;24.70;20.17;;;4.20;1.00;;;;;;5064457;28;20228;-76
2021/10/10 05:53:44;;;;;;;25.70;21.17;;;4.20;1.00;;;;;;5063305;28;20233;-76
2021/10/10 05:56:13;;;;;;;23.13;19.10;;;4.20;1.00;;;;;;5065109;28;20274;-77
2021/10/10 05:58:43;;;;;;;31.10;21.60;;;4.20;1.00;;;;;;5065507;28;20976;-76
2021/10/10 06:01:10;;;;;;;24.50;20.60;;;4.30;1.00;;;;;;5066530;28;20270;-77
2021/10/10 06:03:37;;;;;;;24.08;20.67;;;4.30;1.00;;;;;;5060499;28;21960;-77
2021/10/10 06:06:04;;;;;;;54.28;43.33;;;4.40;1.00;;;;;;5066909;28;20223;-77
2021/10/10 06:08:31;;;;;;;29.70;20.90;;;4.40;1.00;;;;;;5066730;28;20221;-76
2021/10/10 06:10:58;;;;;;;22.08;18.45;;;4.40;1.00;;;;;;5064756;28;20334;-76
2021/10/10 06:13:26;;;;;;;25.55;20.35;;;4.50;1.00;;;;;;5065762;28;20263;-76
2021/10/10 06:15:54;;;;;;;23.10;19.67;;;4.50;1.00;;;;;;5059339;28;20224;-76
2021/10/10 06:18:21;;;;;;;28.52;21.38;;;4.60;1.00;;;;;;5065021;28;20791;-76
2021/10/10 06:20:48;;;;;;;25.73;20.15;;;4.60;1.00;;;;;;5060703;28;20226;-76
2021/10/10 06:23:15;;;;;;;24.10;20.55;;;4.60;1.00;;;;;;5062123;28;21085;-76
2021/10/10 06:25:41;;;;;;;23.63;20.38;;;4.70;1.00;;;;;;5058749;28;20216;-76
2021/10/10 06:28:08;;;;;;;26.23;21.35;;;4.80;1.00;;;;;;5057840;28;20754;-76
2021/10/10 06:30:36;;;;;;;25.48;20.50;;;4.80;1.00;;;;;;5058462;28;20225;-76
2021/10/10 06:33:03;;;;;;;26.35;21.90;;;4.80;1.00;;;;;;5055942;28;20232;-75
2021/10/10 06:35:29;;;;;;;28.55;21.58;;;4.90;1.00;;;;;;5056509;28;20224;-76
2021/10/10 06:37:56;;;;;;;30.42;22.15;;;5.00;1.00;;;;;;5052300;28;20220;-76
2021/10/10 06:40:23;;;;;;;26.83;20.60;;;5.10;1.00;;;;;;5054281;28;20235;-76
2021/10/10 06:42:49;;;;;;;31.25;22.63;;;5.20;1.00;;;;;;5050619;28;20240;-76
2021/10/10 06:45:17;;;;;;;25.40;21.33;;;5.30;1.00;;;;;;5056633;28;20212;-76
2021/10/10 06:47:46;;;;;;;27.80;21.65;;;5.40;1.00;;;;;;5052768;28;20290;-76
2021/10/10 06:50:13;;;;;;;23.95;20.98;;;5.40;1.00;;;;;;5053764;28;20216;-75
2021/10/10 06:52:40;;;;;;;29.45;21.00;;;5.50;1.00;;;;;;5055860;28;20228;-76
2021/10/10 06:55:07;;;;;;;28.05;21.58;;;5.60;1.00;;;;;;5056680;28;20224;-76
2021/10/10 06:57:34;;;;;;;28.23;21.58;;;5.60;1.00;;;;;;5053272;28;20570;-76
2021/10/10 07:00:01;;;;;;;28.08;22.77;;;5.70;1.00;;;;;;5053061;28;20219;-76
2021/10/10 07:02:28;;;;;;;29.85;22.65;;;5.80;1.00;;;;;;5057197;28;20243;-76
2021/10/10 07:04:57;;;;;;;29.85;23.20;;;5.80;1.00;;;;;;5053608;28;21532;-76
2021/10/10 07:07:25;;;;;;;28.90;21.65;;;5.90;1.00;;;;;;5062028;28;20568;-76
2021/10/10 07:09:51;;;;;;;26.90;20.33;;;6.00;1.00;;;;;;5055392;28;20217;-76
2021/10/10 07:12:18;;;;;;;29.52;22.95;;;6.10;1.00;;;;;;5055144;28;20225;-76
2021/10/10 07:14:46;;;;;;;27.30;21.63;;;6.20;1.00;;;;;;5053677;28;20224;-76
2021/10/10 07:17:13;;;;;;;25.27;20.90;;;6.20;1.00;;;;;;5053107;28;20220;-76
2021/10/10 07:19:44;;;;;;;24.40;21.42;;;6.30;1.00;;;;;;5057556;28;20600;-76
2021/10/10 07:22:26;;;;;;;28.67;22.50;;;6.40;1.00;;;;;;5053443;28;20322;-77
2021/10/10 07:25:04;;;;;;;27.40;21.98;;;6.50;1.00;;;;;;5053023;28;20216;-76
2021/10/10 07:27:31;;;;;;;26.92;21.30;;;6.60;1.00;;;;;;5053541;28;20227;-76
2021/10/10 07:29:58;;;;;;;26.58;20.83;;;6.60;1.00;;;;;;5053898;28;21116;-76
2021/10/10 07:32:24;;;;;;;26.42;21.70;;;6.70;1.00;;;;;;5056447;28;20638;-76
2021/10/10 07:34:51;;;;;;;31.42;21.70;;;6.80;1.00;;;;;;5056766;28;20236;-77
2021/10/10 07:37:19;;;;;;;25.65;21.55;;;6.90;1.00;;;;;;5055110;28;20217;-76
2021/10/10 07:39:46;;;;;;;23.92;20.02;;;7.00;1.00;;;;;;5052563;28;20217;-76
2021/10/10 07:42:13;;;;;;;26.90;21.70;;;7.10;1.00;;;;;;5053760;28;20239;-76
2021/10/10 07:44:44;;;;;;;24.15;20.17;;;7.20;1.00;;;;;;5054571;28;20295;-77
2021/10/10 07:47:18;;;;;;;25.02;21.55;;;7.30;1.00;;;;;;5054982;28;20229;-76
2021/10/10 07:49:45;;;;;;;23.98;20.52;;;7.40;1.00;;;;;;5058154;28;20331;-76
2021/10/10 07:52:12;;;;;;;27.35;21.30;;;7.50;1.00;;;;;;5057986;28;20253;-76
2021/10/10 07:54:40;;;;;;;23.30;20.73;;;7.60;1.00;;;;;;5059846;28;20228;-77
2021/10/10 07:57:07;;;;;;;27.20;19.20;;;7.70;1.00;;;;;;5061677;28;21094;-77
2021/10/10 07:59:34;;;;;;;26.90;21.05;;;7.80;1.00;;;;;;5060207;28;20228;-77
2021/10/10 08:02:00;;;;;;;27.08;21.75;;;7.90;1.00;;;;;;5057189;28;21325;-77
2021/10/10 08:04:28;;;;;;;26.20;19.63;;;7.90;1.00;;;;;;5061221;28;20224;-77
2021/10/10 08:06:55;;;;;;;23.98;21.48;;;8.00;1.00;;;;;;5057558;28;20222;-77
2021/10/10 08:09:22;;;;;;;24.83;20.80;;;8.10;1.00;;;;;;5061361;28;21066;-77
2021/10/10 08:11:50;;;;;;;26.23;19.50;;;8.30;1.00;;;;;;5058272;28;20226;-77
2021/10/10 08:14:16;;;;;;;26.55;21.30;;;8.50;1.00;;;;;;5062767;28;20239;-76
2021/10/10 08:16:45;;;;;;;23.63;19.52;;;8.60;1.00;;;;;;5054383;28;20222;-76
2021/10/10 08:19:12;;;;;;;25.98;20.92;;;8.70;1.00;;;;;;5060543;28;20229;-75
2021/10/10 08:21:39;;;;;;;23.35;20.42;;;8.80;1.00;;;;;;5062920;28;20805;-78
2021/10/10 08:24:06;;;;;;;23.63;19.70;;;8.90;1.00;;;;;;5067247;28;20294;-77
2021/10/10 08:26:33;;;;;;;23.85;20.17;;;9.10;1.00;;;;;;5060935;28;20223;-77
2021/10/10 08:29:01;;;;;;;22.20;19.20;;;9.50;1.00;;;;;;5062658;28;20220;-76
2021/10/10 08:31:28;;;;;;;25.97;19.17;;;10.30;1.00;;;;;;5061171;28;20449;-77
2021/10/10 08:33:55;;;;;;;44.17;33.20;;;11.40;1.00;;;;;;5062067;28;21318;-78
2021/10/10 08:36:22;;;;;;;21.47;16.90;;;12.00;1.00;;;;;;5067479;28;21174;-78
2021/10/10 08:38:49;;;;;;;23.50;18.83;;;12.90;1.00;;;;;;5063570;28;20506;-76
2021/10/10 08:41:19;;;;;;;21.23;19.03;;;13.60;1.00;;;;;;5062024;28;20490;-77
2021/10/10 08:43:48;;;;;;;21.43;18.70;;;14.20;1.00;;;;;;5062814;28;20525;-77
2021/10/10 08:46:23;;;;;;;21.43;18.30;;;14.90;1.00;;;;;;5059472;28;20546;-76
2021/10/10 08:48:50;;;;;;;19.43;17.43;;;15.60;1.00;;;;;;5061326;28;20960;-77
2021/10/10 08:51:17;;;;;;;19.47;17.40;;;16.60;1.00;;;;;;5061448;28;20836;-78
2021/10/10 08:53:44;;;;;;;17.90;16.10;;;17.30;1.00;;;;;;5059082;28;21717;-77
2021/10/10 08:56:11;;;;;;;18.73;16.70;;;18.10;1.00;;;;;;5059939;28;20437;-78
2021/10/10 08:58:42;;;;;;;18.47;16.50;;;18.40;1.00;;;;;;5061577;28;20980;-78
2021/10/10 09:01:15;;;;;;;17.13;15.43;;;18.40;1.00;;;;;;5060278;28;20456;-78
2021/10/10 09:03:48;;;;;;;18.97;16.33;;;18.40;1.00;;;;;;5063398;28;20467;-77
2021/10/10 09:06:14;;;;;;;16.80;14.87;;;18.80;1.00;;;;;;5063910;28;20450;-78
2021/10/10 09:08:41;;;;;;;17.03;15.40;;;19.40;1.00;;;;;;5063167;28;20571;-77
2021/10/10 09:11:09;;;;;;;16.80;15.00;;;20.00;1.00;;;;;;5062692;28;20464;-78
2021/10/10 09:13:37;;;;;;;17.37;15.67;;;20.20;1.00;;;;;;5055773;28;20479;-77
2021/10/10 09:16:06;;;;;;;16.83;15.13;;;20.70;1.00;;;;;;5063342;28;20463;-78
2021/10/10 09:18:33;;;;;;;17.93;16.13;;;20.70;1.00;;;;;;5062210;28;20451;-77
2021/10/10 09:21:17;;;;;;;16.00;14.23;;;20.00;1.00;;;;;;5069994;28;20418;-77
2021/10/10 09:23:47;;;;;;;16.47;14.73;;;19.10;1.00;;;;;;5062527;28;20466;-79
2021/10/10 09:26:13;;;;;;;20.57;15.33;;;18.10;1.00;;;;;;5071498;28;20460;-77
2021/10/10 09:28:41;;;;;;;17.13;13.97;;;17.90;1.00;;;;;;5064457;28;20451;-77
2021/10/10 09:31:08;;;;;;;17.77;15.60;;;17.50;1.00;;;;;;5065109;28;20480;-76
2021/10/10 09:33:37;;;;;;;14.70;13.20;;;16.60;1.00;;;;;;5061754;28;20950;-78
2021/10/10 09:36:05;;;;;;;13.77;12.37;;;15.80;1.00;;;;;;5067786;28;20450;-78
2021/10/10 09:38:41;;;;;;;15.67;13.97;;;15.30;1.00;;;;;;5067333;28;20463;-79
2021/10/10 09:41:14;;;;;;;16.00;13.20;;;14.90;1.00;;;;;;5080909;28;20638;-82
2021/10/10 09:44:06;;;;;;;15.30;13.70;;;14.50;1.00;;;;;;5077659;28;20475;-81
2021/10/10 09:46:33;;;;;;;14.43;13.03;;;14.10;1.00;;;;;;5074029;28;20443;-82
2021/10/10 09:49:00;;;;;;;14.17;12.60;;;13.90;1.00;;;;;;5055915;28;20620;-78
2021/10/10 09:51:29;;;;;;;14.07;12.60;;;13.60;1.00;;;;;;5055666;28;20455;-79
2021/10/10 09:54:02;;;;;;;13.90;11.70;;;13.50;1.00;;;;;;5053602;28;20495;-80
2021/10/10 09:56:29;;;;;;;14.80;11.57;;;13.40;1.00;;;;;;5053005;28;21072;-79
2021/10/10 09:58:56;;;;;;;13.60;10.93;;;13.40;1.00;;;;;;5054610;28;20480;-79
2021/10/10 10:01:24;;;;;;;14.07;11.60;;;13.70;1.00;;;;;;5050471;28;20495;-81
2021/10/10 10:03:59;;;;;;;15.47;11.77;;;14.30;1.00;;;;;;5053680;28;20513;-81
2021/10/10 10:06:28;;;;;;;13.70;11.50;;;15.30;1.00;;;;;;5053161;28;20457;-79
2021/10/10 10:08:55;;;;;;;13.37;12.07;;;16.70;1.00;;;;;;5059658;28;20538;-80
2021/10/10 10:11:23;;;;;;;11.73;10.50;;;17.10;1.00;;;;;;5056406;28;20442;-78
2021/10/10 10:13:51;;;;;;;13.70;11.87;;;17.00;1.00;;;;;;5056104;28;21406;-80
2021/10/10 10:16:18;;;;;;;15.93;11.50;;;16.70;1.00;;;;;;5053172;28;20996;-78
2021/10/10 10:18:46;;;;;;;13.63;11.00;;;16.30;1.00;;;;;;5062438;28;20461;-81
2021/10/10 10:21:14;;;;;;;12.60;11.30;;;16.30;1.00;;;;;;5063031;28;20537;-79
2021/10/10 10:23:41;;;;;;;12.13;11.00;;;17.00;1.00;;;;;;5061318;28;20427;-80
2021/10/10 10:26:08;;;;;;;15.77;10.93;;;18.90;1.00;;;;;;5058924;28;20471;-79
2021/10/10 10:28:37;;;;;;;13.63;11.00;;;20.30;1.00;;;;;;5059775;28;20484;-80
2021/10/10 10:31:05;;;;;;;12.03;10.83;;;19.60;1.00;;;;;;5057213;28;20460;-81
2021/10/10 10:33:32;;;;;;;11.80;10.40;;;18.80;1.00;;;;;;5045278;28;20455;-78
2021/10/10 10:35:59;;;;;;;12.63;10.83;;;17.80;1.00;;;;;;5055726;28;20455;-81
2021/10/10 10:38:46;;;;;;;13.10;10.97;;;16.90;1.00;;;;;;5058932;28;20476;-80
2021/10/10 10:41:50;;;;;;;15.40;11.60;;;16.10;1.00;;;;;;5058466;28;20966;-79
2021/10/10 10:44:35;;;;;;;12.70;10.60;;;15.80;1.00;;;;;;5054962;28;20517;-79
2021/10/10 10:47:03;;;;;;;15.07;9.90;;;16.10;1.00;;;;;;5067762;28;20543;-81
2021/10/10 10:49:45;;;;;;;11.40;9.97;;;16.90;1.00;;;;;;5059916;28;20464;-81
2021/10/10 10:52:30;;;;;;;12.60;10.80;;;18.60;1.00;;;;;;5064881;28;20563;-80
2021/10/10 10:54:58;;;;;;;12.80;11.50;;;20.00;1.00;;;;;;5061854;28;20477;-81
2021/10/10 10:57:33;;;;;;;13.53;10.03;;;21.20;1.00;;;;;;5057922;28;20731;-81
2021/10/10 11:00:06;;;;;;;12.07;10.70;;;21.50;1.00;;;;;;5068091;28;20421;-81
2021/10/10 11:02:52;;;;;;;12.03;10.07;;;20.90;1.00;;;;;;5066411;28;20766;-80
2021/10/10 11:05:42;;;;;;;11.90;10.00;;;19.80;1.00;;;;;;5057590;28;20545;-81
2021/10/10 11:08:29;;;;;;;11.77;10.57;;;19.40;1.00;;;;;;5055514;28;20437;-79
2021/10/10 11:11:07;;;;;;;12.10;10.80;;;20.30;1.00;;;;;;5074993;28;20454;-81
2021/10/10 11:13:38;;;;;;;11.27;10.17;;;23.10;1.00;;;;;;5071308;28;20474;-79
2021/10/10 11:16:08;;;;;;;11.93;9.90;;;24.30;1.00;;;;;;5065261;28;20470;-80
2021/10/10 11:18:36;;;;;;;10.03;9.00;;;24.60;1.00;;;;;;5067667;28;20527;-79
2021/10/10 11:21:05;;;;;;;11.03;9.80;;;25.90;1.00;;;;;;5081442;28;20475;-79
2021/10/10 11:23:33;;;;;;;10.87;8.60;;;27.40;1.00;;;;;;5067880;28;20560;-80
2021/10/10 11:26:04;;;;;;;8.70;7.90;;;28.60;1.00;;;;;;5063831;28;20624;-81
2021/10/10 11:28:40;;;;;;;9.00;8.20;;;29.00;1.00;;;;;;5063762;28;20431;-80
2021/10/10 11:31:10;;;;;;;8.53;7.63;;;29.10;1.00;;;;;;5070291;28;20524;-80
2021/10/10 11:33:39;;;;;;;8.90;7.53;;;28.90;1.00;;;;;;5071477;28;20867;-79
2021/10/10 11:36:05;;;;;;;8.97;7.53;;;26.80;1.00;;;;;;5062126;28;20551;-79
2021/10/10 11:38:47;;;;;;;7.50;6.80;;;25.80;1.00;;;;;;5066082;28;20449;-79
2021/10/10 11:41:14;;;;;;;8.60;7.43;;;26.70;1.00;;;;;;5063722;28;20455;-80
2021/10/10 11:43:41;;;;;;;7.80;7.10;;;26.70;1.00;;;;;;5064466;28;20420;-79
2021/10/10 11:46:09;;;;;;;8.07;7.23;;;26.80;1.00;;;;;;5064494;28;20469;-79
2021/10/10 11:48:37;;;;;;;9.10;8.03;;;26.60;1.00;;;;;;5065068;28;20499;-79
2021/10/10 11:51:05;;;;;;;11.53;9.47;;;27.00;1.00;;;;;;5064014;28;20462;-79
2021/10/10 11:53:38;;;;;;;8.37;7.67;;;27.50;1.00;;;;;;5064025;28;20443;-78
2021/10/10 11:56:05;;;;;;;8.37;7.67;;;27.70;1.00;;;;;;5064754;28;20482;-80
2021/10/10 11:58:33;;;;;;;8.13;7.33;;;27.40;1.00;;;;;;5064102;28;20456;-80
2021/10/10 12:01:09;;;;;;;9.87;8.20;;;28.50;1.00;;;;;;5068597;28;20468;-79
2021/10/10 12:03:41;;;;;;;11.50;9.17;;;28.50;1.00;;;;;;5070363;28;20691;-82
2021/10/10 12:06:16;;;;;;;8.83;7.93;;;27.50;1.00;;;;;;5057774;28;20522;-80
2021/10/10 12:08:43;;;;;;;8.77;7.80;;;26.10;1.00;;;;;;5056028;28;20450;-79
2021/10/10 12:11:10;;;;;;;9.90;8.43;;;24.80;1.00;;;;;;5053530;28;20495;-79
2021/10/10 12:13:37;;;;;;;9.73;7.70;;;23.90;1.00;;;;;;5063056;28;20542;-80
2021/10/10 12:16:05;;;;;;;8.63;7.60;;;24.60;1.00;;;;;;5058735;28;20481;-79
2021/10/10 12:18:34;;;;;;;9.90;8.90;;;25.50;1.00;;;;;;5055685;28;20453;-79
2021/10/10 12:21:27;;;;;;;19.87;17.37;;;24.80;1.00;;;;;;5063193;28;20463;-78
2021/10/10 12:24:13;;;;;;;9.50;7.60;;;23.80;1.00;;;;;;5051754;28;20462;-78
2021/10/10 12:26:52;;;;;;;11.40;8.43;;;24.00;1.00;;;;;;5051696;28;20464;-77
2021/10/10 12:29:24;;;;;;;8.90;6.93;;;24.10;1.00;;;;;;5044209;28;20459;-79
2021/10/10 12:31:52;;;;;;;8.53;7.60;;;24.30;1.00;;;;;;5048318;28;20618;-80
2021/10/10 12:34:28;;;;;;;11.83;8.87;;;23.80;1.00;;;;;;5057216;28;20457;-79
2021/10/10 12:36:56;;;;;;;8.73;7.80;;;23.00;1.00;;;;;;5056499;28;20447;-79
2021/10/10 12:39:40;;;;;;;9.90;8.00;;;21.70;1.00;;;;;;5057789;28;20458;-79
2021/10/10 12:42:07;;;;;;;8.23;6.80;;;20.70;1.00;;;;;;5049040;28;20465;-79
2021/10/10 12:44:33;;;;;;;7.70;6.90;;;20.10;1.00;;;;;;5047418;27;20479;-80
2021/10/10 12:47:01;;;;;;;8.53;7.37;;;19.70;1.00;;;;;;5044876;28;20448;-80
2021/10/10 12:49:31;;;;;;;8.50;7.10;;;19.40;1.00;;;;;;5055327;28;20404;-78
2021/10/10 12:51:59;;;;;;;8.93;7.20;;;19.00;1.00;;;;;;5045622;28;21391;-79